sensor_id;sensor_type;location;lat;lon;timestamp;P1;durP1;ratioP1;P2;durP2;ratioP2
69912;SDS011;57198;52.082;5.108;2022-07-09T00:02:19;12.38;;;8.57;;
69912;SDS011;57198;52.082;5.108;2022-07-09T00:04:47;11.95;;;8.75;;
69912;SDS011;57198;52.082;5.108;2022-07-09T00:07:14;13.90;;;9.30;;
69912;SDS011;57198;52.082;5.108;2022-07-09T00:09:41;13.37;;;9.00;;
69912;SDS011;57198;52.082;5.108;2022-07-09T00:12:08;12.35;;;8.07;;
69912;SDS011;57198;52.082;5.108;2022-07-09T00:14:36;15.15;;;8.88;;
69912;SDS011;57198;52.082;5.108;2022-07-09T00:17:03;10.68;;;7.15;;
69912;SDS011;57198;52.082;5.108;2022-07-09T00:19:31;12.63;;;8.65;;
69912;SDS011;57198;52.082;5.108;2022-07-09T00:21:58;11.53;;;8.00;;
69912;SDS011;57198;52.082;5.108;2022-07-09T00:24:25;14.88;;;9.43;;
69912;SDS011;57198;52.082;5.108;2022-07-09T00:26:53;13.52;;;8.50;;
69912;SDS011;57198;52.082;5.108;2022-07-09T00:29:20;11.98;;;8.77;;
69912;SDS011;57198;52.082;5.108;2022-07-09T00:31:47;14.82;;;10.00;;
69912;SDS011;57198;52.082;5.108;2022-07-09T00:34:15;14.80;;;9.77;;
69912;SDS011;57198;52.082;5.108;2022-07-09T00:36:42;13.90;;;8.93;;
69912;SDS011;57198;52.082;5.108;2022-07-09T00:39:09;12.23;;;8.52;;
69912;SDS011;57198;52.082;5.108;2022-07-09T00:41:36;15.75;;;10.23;;
69912;SDS011;57198;52.082;5.108;2022-07-09T00:44:04;14.35;;;9.13;;
69912;SDS011;57198;52.082;5.108;2022-07-09T00:46:31;13.30;;;9.63;;
69912;SDS011;57198;52.082;5.108;2022-07-09T00:48:58;15.48;;;9.88;;
69912;SDS011;57198;52.082;5.108;2022-07-09T00:51:30;12.38;;;8.30;;
69912;SDS011;57198;52.082;5.108;2022-07-09T00:53:59;13.93;;;9.93;;
69912;SDS011;57198;52.082;5.108;2022-07-09T00:56:27;13.40;;;10.52;;
69912;SDS011;57198;52.082;5.108;2022-07-09T00:58:55;16.00;;;10.77;;
69912;SDS011;57198;52.082;5.108;2022-07-09T01:01:22;14.15;;;10.55;;
69912;SDS011;57198;52.082;5.108;2022-07-09T01:03:50;16.27;;;10.77;;
69912;SDS011;57198;52.082;5.108;2022-07-09T01:06:17;14.82;;;10.57;;
69912;SDS011;57198;52.082;5.108;2022-07-09T01:08:44;18.27;;;14.00;;
69912;SDS011;57198;52.082;5.108;2022-07-09T01:11:11;19.60;;;14.33;;
69912;SDS011;57198;52.082;5.108;2022-07-09T01:13:39;17.60;;;13.57;;
69912;SDS011;57198;52.082;5.108;2022-07-09T01:16:11;17.20;;;13.52;;
69912;SDS011;57198;52.082;5.108;2022-07-09T01:18:39;19.42;;;12.63;;
69912;SDS011;57198;52.082;5.108;2022-07-09T01:21:06;20.23;;;14.35;;
69912;SDS011;57198;52.082;5.108;2022-07-09T01:23:34;20.60;;;14.77;;
69912;SDS011;57198;52.082;5.108;2022-07-09T01:26:01;16.73;;;12.38;;
69912;SDS011;57198;52.082;5.108;2022-07-09T01:28:28;18.92;;;13.20;;
69912;SDS011;57198;52.082;5.108;2022-07-09T01:30:56;21.73;;;14.10;;
69912;SDS011;57198;52.082;5.108;2022-07-09T01:33:23;17.48;;;12.98;;
69912;SDS011;57198;52.082;5.108;2022-07-09T01:35:50;15.70;;;12.70;;
69912;SDS011;57198;52.082;5.108;2022-07-09T01:38:18;18.00;;;13.38;;
69912;SDS011;57198;52.082;5.108;2022-07-09T01:40:45;14.93;;;12.05;;
69912;SDS011;57198;52.082;5.108;2022-07-09T01:43:12;14.63;;;11.77;;
69912;SDS011;57198;52.082;5.108;2022-07-09T01:45:39;18.45;;;14.40;;
69912;SDS011;57198;52.082;5.108;2022-07-09T01:48:07;19.83;;;14.30;;
69912;SDS011;57198;52.082;5.108;2022-07-09T01:50:34;19.17;;;12.85;;
69912;SDS011;57198;52.082;5.108;2022-07-09T01:53:01;18.50;;;13.43;;
69912;SDS011;57198;52.082;5.108;2022-07-09T01:55:29;14.52;;;11.52;;
69912;SDS011;57198;52.082;5.108;2022-07-09T01:57:56;18.50;;;13.18;;
69912;SDS011;57198;52.082;5.108;2022-07-09T02:00:23;18.83;;;14.63;;
69912;SDS011;57198;52.082;5.108;2022-07-09T02:02:54;21.60;;;14.30;;
69912;SDS011;57198;52.082;5.108;2022-07-09T02:05:21;18.90;;;15.20;;
69912;SDS011;57198;52.082;5.108;2022-07-09T02:07:48;18.05;;;14.20;;
69912;SDS011;57198;52.082;5.108;2022-07-09T02:10:16;19.23;;;15.38;;
69912;SDS011;57198;52.082;5.108;2022-07-09T02:12:43;21.07;;;14.23;;
69912;SDS011;57198;52.082;5.108;2022-07-09T02:15:10;20.30;;;14.68;;
69912;SDS011;57198;52.082;5.108;2022-07-09T02:17:39;19.77;;;14.32;;
69912;SDS011;57198;52.082;5.108;2022-07-09T02:20:06;17.65;;;13.65;;
69912;SDS011;57198;52.082;5.108;2022-07-09T02:22:35;20.05;;;16.10;;
69912;SDS011;57198;52.082;5.108;2022-07-09T02:25:02;15.57;;;12.77;;
69912;SDS011;57198;52.082;5.108;2022-07-09T02:27:29;20.08;;;14.77;;
69912;SDS011;57198;52.082;5.108;2022-07-09T02:29:57;19.75;;;14.05;;
69912;SDS011;57198;52.082;5.108;2022-07-09T02:32:24;17.35;;;13.95;;
69912;SDS011;57198;52.082;5.108;2022-07-09T02:34:51;17.70;;;13.98;;
69912;SDS011;57198;52.082;5.108;2022-07-09T02:37:19;17.80;;;14.30;;
69912;SDS011;57198;52.082;5.108;2022-07-09T02:39:46;16.60;;;13.43;;
69912;SDS011;57198;52.082;5.108;2022-07-09T02:42:13;19.95;;;16.15;;
69912;SDS011;57198;52.082;5.108;2022-07-09T02:44:41;20.35;;;16.15;;
69912;SDS011;57198;52.082;5.108;2022-07-09T02:47:09;21.15;;;16.23;;
69912;SDS011;57198;52.082;5.108;2022-07-09T02:49:37;19.57;;;15.70;;
69912;SDS011;57198;52.082;5.108;2022-07-09T02:52:04;18.63;;;14.32;;
69912;SDS011;57198;52.082;5.108;2022-07-09T02:54:32;20.02;;;14.88;;
69912;SDS011;57198;52.082;5.108;2022-07-09T02:57:00;20.95;;;15.57;;
69912;SDS011;57198;52.082;5.108;2022-07-09T02:59:28;21.67;;;14.35;;
69912;SDS011;57198;52.082;5.108;2022-07-09T03:01:55;21.73;;;15.70;;
69912;SDS011;57198;52.082;5.108;2022-07-09T03:04:22;19.42;;;15.25;;
69912;SDS011;57198;52.082;5.108;2022-07-09T03:06:50;26.40;;;16.55;;
69912;SDS011;57198;52.082;5.108;2022-07-09T03:09:17;20.40;;;15.77;;
69912;SDS011;57198;52.082;5.108;2022-07-09T03:11:44;21.83;;;15.48;;
69912;SDS011;57198;52.082;5.108;2022-07-09T03:14:11;25.20;;;16.40;;
69912;SDS011;57198;52.082;5.108;2022-07-09T03:16:39;20.00;;;14.98;;
69912;SDS011;57198;52.082;5.108;2022-07-09T03:19:06;18.33;;;12.32;;
69912;SDS011;57198;52.082;5.108;2022-07-09T03:21:33;19.45;;;14.43;;
69912;SDS011;57198;52.082;5.108;2022-07-09T03:24:01;21.02;;;14.40;;
69912;SDS011;57198;52.082;5.108;2022-07-09T03:26:28;21.50;;;15.80;;
69912;SDS011;57198;52.082;5.108;2022-07-09T03:28:55;22.23;;;14.95;;
69912;SDS011;57198;52.082;5.108;2022-07-09T03:31:23;17.50;;;13.85;;
69912;SDS011;57198;52.082;5.108;2022-07-09T03:33:50;15.80;;;12.55;;
69912;SDS011;57198;52.082;5.108;2022-07-09T03:36:21;23.63;;;13.90;;
69912;SDS011;57198;52.082;5.108;2022-07-09T03:38:48;18.93;;;15.00;;
69912;SDS011;57198;52.082;5.108;2022-07-09T03:41:15;20.13;;;14.77;;
69912;SDS011;57198;52.082;5.108;2022-07-09T03:43:43;22.42;;;15.20;;
69912;SDS011;57198;52.082;5.108;2022-07-09T03:46:10;17.40;;;13.50;;
69912;SDS011;57198;52.082;5.108;2022-07-09T03:48:38;23.45;;;14.82;;
69912;SDS011;57198;52.082;5.108;2022-07-09T03:51:05;20.03;;;14.70;;
69912;SDS011;57198;52.082;5.108;2022-07-09T03:53:32;24.50;;;15.65;;
69912;SDS011;57198;52.082;5.108;2022-07-09T03:56:00;19.98;;;15.45;;
69912;SDS011;57198;52.082;5.108;2022-07-09T03:58:28;18.40;;;14.85;;
69912;SDS011;57198;52.082;5.108;2022-07-09T04:00:55;19.80;;;16.23;;
69912;SDS011;57198;52.082;5.108;2022-07-09T04:03:22;19.43;;;16.00;;
69912;SDS011;57198;52.082;5.108;2022-07-09T04:05:49;17.85;;;14.88;;
69912;SDS011;57198;52.082;5.108;2022-07-09T04:08:17;18.13;;;14.23;;
69912;SDS011;57198;52.082;5.108;2022-07-09T04:10:44;19.05;;;14.88;;
69912;SDS011;57198;52.082;5.108;2022-07-09T04:13:11;21.90;;;15.88;;
69912;SDS011;57198;52.082;5.108;2022-07-09T04:15:40;19.63;;;15.43;;
69912;SDS011;57198;52.082;5.108;2022-07-09T04:18:07;18.45;;;16.15;;
69912;SDS011;57198;52.082;5.108;2022-07-09T04:20:35;19.80;;;14.30;;
69912;SDS011;57198;52.082;5.108;2022-07-09T04:23:02;21.75;;;15.30;;
69912;SDS011;57198;52.082;5.108;2022-07-09T04:25:29;19.88;;;15.18;;
69912;SDS011;57198;52.082;5.108;2022-07-09T04:27:57;21.63;;;14.77;;
69912;SDS011;57198;52.082;5.108;2022-07-09T04:30:28;20.13;;;15.52;;
69912;SDS011;57198;52.082;5.108;2022-07-09T04:32:55;18.30;;;14.73;;
69912;SDS011;57198;52.082;5.108;2022-07-09T04:35:23;20.55;;;15.45;;
69912;SDS011;57198;52.082;5.108;2022-07-09T04:37:50;21.48;;;16.05;;
69912;SDS011;57198;52.082;5.108;2022-07-09T04:40:18;20.53;;;15.17;;
69912;SDS011;57198;52.082;5.108;2022-07-09T04:42:45;22.77;;;15.90;;
69912;SDS011;57198;52.082;5.108;2022-07-09T04:45:12;19.67;;;14.73;;
69912;SDS011;57198;52.082;5.108;2022-07-09T04:47:39;19.60;;;14.75;;
69912;SDS011;57198;52.082;5.108;2022-07-09T04:50:07;21.23;;;15.13;;
69912;SDS011;57198;52.082;5.108;2022-07-09T04:52:34;20.27;;;15.40;;
69912;SDS011;57198;52.082;5.108;2022-07-09T04:55:02;22.85;;;16.73;;
69912;SDS011;57198;52.082;5.108;2022-07-09T04:57:29;20.90;;;16.15;;
69912;SDS011;57198;52.082;5.108;2022-07-09T04:59:57;20.00;;;14.82;;
69912;SDS011;57198;52.082;5.108;2022-07-09T05:02:25;21.85;;;15.18;;
69912;SDS011;57198;52.082;5.108;2022-07-09T05:04:52;19.77;;;15.93;;
69912;SDS011;57198;52.082;5.108;2022-07-09T05:07:19;22.15;;;16.27;;
69912;SDS011;57198;52.082;5.108;2022-07-09T05:09:47;20.77;;;16.88;;
69912;SDS011;57198;52.082;5.108;2022-07-09T05:12:14;23.52;;;16.92;;
69912;SDS011;57198;52.082;5.108;2022-07-09T05:14:41;23.50;;;17.35;;
69912;SDS011;57198;52.082;5.108;2022-07-09T05:17:09;21.53;;;15.40;;
69912;SDS011;57198;52.082;5.108;2022-07-09T05:19:36;20.52;;;14.73;;
69912;SDS011;57198;52.082;5.108;2022-07-09T05:22:04;22.98;;;15.52;;
69912;SDS011;57198;52.082;5.108;2022-07-09T05:24:31;21.08;;;16.02;;
69912;SDS011;57198;52.082;5.108;2022-07-09T05:26:58;21.83;;;15.43;;
69912;SDS011;57198;52.082;5.108;2022-07-09T05:29:26;21.97;;;13.93;;
69912;SDS011;57198;52.082;5.108;2022-07-09T05:31:53;19.25;;;14.55;;
69912;SDS011;57198;52.082;5.108;2022-07-09T05:34:22;19.48;;;15.27;;
69912;SDS011;57198;52.082;5.108;2022-07-09T05:36:49;20.17;;;15.63;;
69912;SDS011;57198;52.082;5.108;2022-07-09T05:39:21;19.45;;;14.00;;
69912;SDS011;57198;52.082;5.108;2022-07-09T05:41:48;17.77;;;15.23;;
69912;SDS011;57198;52.082;5.108;2022-07-09T05:44:16;19.52;;;14.55;;
69912;SDS011;57198;52.082;5.108;2022-07-09T05:46:49;19.90;;;14.07;;
69912;SDS011;57198;52.082;5.108;2022-07-09T05:49:17;21.02;;;15.30;;
69912;SDS011;57198;52.082;5.108;2022-07-09T05:51:44;20.50;;;14.20;;
69912;SDS011;57198;52.082;5.108;2022-07-09T05:54:12;16.30;;;13.80;;
69912;SDS011;57198;52.082;5.108;2022-07-09T05:56:39;20.52;;;13.93;;
69912;SDS011;57198;52.082;5.108;2022-07-09T05:59:07;19.55;;;15.00;;
69912;SDS011;57198;52.082;5.108;2022-07-09T06:01:35;22.10;;;15.88;;
69912;SDS011;57198;52.082;5.108;2022-07-09T06:04:06;21.63;;;15.48;;
69912;SDS011;57198;52.082;5.108;2022-07-09T06:06:34;18.23;;;13.97;;
69912;SDS011;57198;52.082;5.108;2022-07-09T06:09:01;18.85;;;14.82;;
69912;SDS011;57198;52.082;5.108;2022-07-09T06:11:29;23.63;;;16.23;;
69912;SDS011;57198;52.082;5.108;2022-07-09T06:13:56;18.80;;;14.95;;
69912;SDS011;57198;52.082;5.108;2022-07-09T06:16:23;20.60;;;14.15;;
69912;SDS011;57198;52.082;5.108;2022-07-09T06:18:51;22.13;;;14.13;;
69912;SDS011;57198;52.082;5.108;2022-07-09T06:21:18;19.23;;;14.23;;
69912;SDS011;57198;52.082;5.108;2022-07-09T06:23:45;21.27;;;13.48;;
69912;SDS011;57198;52.082;5.108;2022-07-09T06:26:13;19.15;;;13.55;;
69912;SDS011;57198;52.082;5.108;2022-07-09T06:28:40;19.88;;;13.50;;
69912;SDS011;57198;52.082;5.108;2022-07-09T06:31:07;16.80;;;13.17;;
69912;SDS011;57198;52.082;5.108;2022-07-09T06:33:35;17.42;;;14.07;;
69912;SDS011;57198;52.082;5.108;2022-07-09T06:36:02;21.00;;;14.45;;
69912;SDS011;57198;52.082;5.108;2022-07-09T06:38:29;18.55;;;14.32;;
69912;SDS011;57198;52.082;5.108;2022-07-09T06:40:57;16.58;;;14.27;;
69912;SDS011;57198;52.082;5.108;2022-07-09T06:43:25;18.17;;;12.87;;
69912;SDS011;57198;52.082;5.108;2022-07-09T06:45:57;19.20;;;13.75;;
69912;SDS011;57198;52.082;5.108;2022-07-09T06:48:24;17.35;;;13.35;;
69912;SDS011;57198;52.082;5.108;2022-07-09T06:50:52;17.13;;;12.48;;
69912;SDS011;57198;52.082;5.108;2022-07-09T06:53:19;15.93;;;12.43;;
69912;SDS011;57198;52.082;5.108;2022-07-09T06:55:46;15.83;;;12.27;;
69912;SDS011;57198;52.082;5.108;2022-07-09T06:58:14;13.77;;;11.75;;
69912;SDS011;57198;52.082;5.108;2022-07-09T07:00:41;17.70;;;11.93;;
69912;SDS011;57198;52.082;5.108;2022-07-09T07:03:08;15.60;;;11.55;;
69912;SDS011;57198;52.082;5.108;2022-07-09T07:05:36;15.05;;;10.45;;
69912;SDS011;57198;52.082;5.108;2022-07-09T07:08:03;15.73;;;10.90;;
69912;SDS011;57198;52.082;5.108;2022-07-09T07:10:30;15.60;;;11.48;;
69912;SDS011;57198;52.082;5.108;2022-07-09T07:12:58;13.88;;;12.05;;
69912;SDS011;57198;52.082;5.108;2022-07-09T07:15:25;13.98;;;11.52;;
69912;SDS011;57198;52.082;5.108;2022-07-09T07:17:52;13.80;;;11.02;;
69912;SDS011;57198;52.082;5.108;2022-07-09T07:20:24;13.03;;;10.80;;
69912;SDS011;57198;52.082;5.108;2022-07-09T07:22:51;11.70;;;10.40;;
69912;SDS011;57198;52.082;5.108;2022-07-09T07:25:18;13.15;;;10.35;;
69912;SDS011;57198;52.082;5.108;2022-07-09T07:27:46;12.25;;;9.60;;
69912;SDS011;57198;52.082;5.108;2022-07-09T07:30:13;12.63;;;9.60;;
69912;SDS011;57198;52.082;5.108;2022-07-09T07:32:40;8.97;;;8.07;;
69912;SDS011;57198;52.082;5.108;2022-07-09T07:35:08;15.77;;;9.23;;
69912;SDS011;57198;52.082;5.108;2022-07-09T07:37:35;12.43;;;9.65;;
69912;SDS011;57198;52.082;5.108;2022-07-09T07:40:02;10.68;;;9.30;;
69912;SDS011;57198;52.082;5.108;2022-07-09T07:42:36;12.40;;;9.68;;
69912;SDS011;57198;52.082;5.108;2022-07-09T07:45:04;11.87;;;8.97;;
69912;SDS011;57198;52.082;5.108;2022-07-09T07:47:31;11.48;;;9.65;;
69912;SDS011;57198;52.082;5.108;2022-07-09T07:49:58;13.05;;;9.32;;
69912;SDS011;57198;52.082;5.108;2022-07-09T07:52:26;10.73;;;8.93;;
69912;SDS011;57198;52.082;5.108;2022-07-09T07:54:53;9.35;;;7.45;;
69912;SDS011;57198;52.082;5.108;2022-07-09T07:57:20;10.47;;;7.23;;
69912;SDS011;57198;52.082;5.108;2022-07-09T07:59:48;11.40;;;6.28;;
69912;SDS011;57198;52.082;5.108;2022-07-09T08:02:15;7.63;;;6.32;;
69912;SDS011;57198;52.082;5.108;2022-07-09T08:04:43;8.65;;;6.60;;
69912;SDS011;57198;52.082;5.108;2022-07-09T08:07:10;8.75;;;6.20;;
69912;SDS011;57198;52.082;5.108;2022-07-09T08:09:37;7.63;;;6.07;;
69912;SDS011;57198;52.082;5.108;2022-07-09T08:12:05;9.82;;;5.70;;
69912;SDS011;57198;52.082;5.108;2022-07-09T08:14:32;7.90;;;5.25;;
69912;SDS011;57198;52.082;5.108;2022-07-09T08:17:00;9.45;;;5.57;;
69912;SDS011;57198;52.082;5.108;2022-07-09T08:19:27;8.73;;;5.97;;
69912;SDS011;57198;52.082;5.108;2022-07-09T08:21:58;6.67;;;5.53;;
69912;SDS011;57198;52.082;5.108;2022-07-09T08:24:26;6.70;;;5.53;;
69912;SDS011;57198;52.082;5.108;2022-07-09T08:26:53;8.93;;;4.38;;
69912;SDS011;57198;52.082;5.108;2022-07-09T08:29:20;6.35;;;4.55;;
69912;SDS011;57198;52.082;5.108;2022-07-09T08:31:48;8.23;;;4.40;;
69912;SDS011;57198;52.082;5.108;2022-07-09T08:34:16;5.77;;;3.60;;
69912;SDS011;57198;52.082;5.108;2022-07-09T08:36:44;5.00;;;3.33;;
69912;SDS011;57198;52.082;5.108;2022-07-09T08:39:11;6.47;;;2.97;;
69912;SDS011;57198;52.082;5.108;2022-07-09T08:41:39;5.90;;;2.63;;
69912;SDS011;57198;52.082;5.108;2022-07-09T08:44:06;3.17;;;2.13;;
69912;SDS011;57198;52.082;5.108;2022-07-09T08:46:38;2.63;;;2.00;;
69912;SDS011;57198;52.082;5.108;2022-07-09T08:49:07;5.90;;;1.90;;
69912;SDS011;57198;52.082;5.108;2022-07-09T08:51:35;3.08;;;1.92;;
69912;SDS011;57198;52.082;5.108;2022-07-09T08:54:05;2.22;;;1.65;;
69912;SDS011;57198;52.082;5.108;2022-07-09T08:56:34;2.30;;;2.10;;
69912;SDS011;57198;52.082;5.108;2022-07-09T08:59:02;2.37;;;1.77;;
69912;SDS011;57198;52.082;5.108;2022-07-09T09:01:29;2.95;;;1.80;;
69912;SDS011;57198;52.082;5.108;2022-07-09T09:03:57;2.17;;;1.88;;
69912;SDS011;57198;52.082;5.108;2022-07-09T09:06:24;2.38;;;1.77;;
69912;SDS011;57198;52.082;5.108;2022-07-09T09:08:53;2.17;;;1.98;;
69912;SDS011;57198;52.082;5.108;2022-07-09T09:11:21;2.07;;;1.60;;
69912;SDS011;57198;52.082;5.108;2022-07-09T09:13:49;3.47;;;1.67;;
69912;SDS011;57198;52.082;5.108;2022-07-09T09:16:17;4.05;;;2.00;;
69912;SDS011;57198;52.082;5.108;2022-07-09T09:18:45;2.38;;;1.48;;
69912;SDS011;57198;52.082;5.108;2022-07-09T09:21:14;4.40;;;2.08;;
69912;SDS011;57198;52.082;5.108;2022-07-09T09:23:48;3.10;;;1.63;;
69912;SDS011;57198;52.082;5.108;2022-07-09T09:26:17;3.45;;;1.60;;
69912;SDS011;57198;52.082;5.108;2022-07-09T09:28:45;3.45;;;1.70;;
69912;SDS011;57198;52.082;5.108;2022-07-09T09:31:20;3.67;;;1.58;;
69912;SDS011;57198;52.082;5.108;2022-07-09T09:33:48;3.38;;;3.05;;
69912;SDS011;57198;52.082;5.108;2022-07-09T09:41:43;4.13;;;2.33;;
69912;SDS011;57198;52.082;5.108;2022-07-09T09:44:11;2.72;;;1.67;;
69912;SDS011;57198;52.082;5.108;2022-07-09T09:46:40;2.17;;;1.30;;
69912;SDS011;57198;52.082;5.108;2022-07-09T09:49:08;2.47;;;1.67;;
69912;SDS011;57198;52.082;5.108;2022-07-09T09:51:37;20.13;;;14.30;;
69912;SDS011;57198;52.082;5.108;2022-07-09T09:54:04;16.23;;;11.27;;
69912;SDS011;57198;52.082;5.108;2022-07-09T09:56:32;7.53;;;4.45;;
69912;SDS011;57198;52.082;5.108;2022-07-09T09:59:00;9.73;;;5.78;;
69912;SDS011;57198;52.082;5.108;2022-07-09T10:01:28;7.00;;;3.53;;
69912;SDS011;57198;52.082;5.108;2022-07-09T10:03:56;12.45;;;5.80;;
69912;SDS011;57198;52.082;5.108;2022-07-09T10:06:24;1.50;;;1.33;;
69912;SDS011;57198;52.082;5.108;2022-07-09T10:08:53;4.10;;;1.17;;
69912;SDS011;57198;52.082;5.108;2022-07-09T10:11:21;2.42;;;1.30;;
69912;SDS011;57198;52.082;5.108;2022-07-09T10:13:53;2.40;;;1.33;;
69912;SDS011;57198;52.082;5.108;2022-07-09T10:16:36;3.50;;;1.20;;
69912;SDS011;57198;52.082;5.108;2022-07-09T10:19:04;4.13;;;1.13;;
69912;SDS011;57198;52.082;5.108;2022-07-09T10:24:04;2.50;;;1.48;;
69912;SDS011;57198;52.082;5.108;2022-07-09T10:26:35;1.50;;;0.90;;
69912;SDS011;57198;52.082;5.108;2022-07-09T10:29:24;1.70;;;0.77;;
69912;SDS011;57198;52.082;5.108;2022-07-09T10:31:54;2.25;;;1.27;;
69912;SDS011;57198;52.082;5.108;2022-07-09T10:36:59;1.67;;;0.80;;
69912;SDS011;57198;52.082;5.108;2022-07-09T10:39:27;2.00;;;1.07;;
69912;SDS011;57198;52.082;5.108;2022-07-09T10:41:58;2.75;;;0.90;;
69912;SDS011;57198;52.082;5.108;2022-07-09T10:44:26;2.10;;;0.90;;
69912;SDS011;57198;52.082;5.108;2022-07-09T10:46:56;3.33;;;1.10;;
69912;SDS011;57198;52.082;5.108;2022-07-09T10:49:24;3.53;;;1.85;;
69912;SDS011;57198;52.082;5.108;2022-07-09T10:51:56;3.00;;;0.90;;
69912;SDS011;57198;52.082;5.108;2022-07-09T10:54:31;1.00;;;0.90;;
69912;SDS011;57198;52.082;5.108;2022-07-09T10:56:59;2.92;;;1.13;;
69912;SDS011;57198;52.082;5.108;2022-07-09T10:59:26;1.92;;;0.80;;
69912;SDS011;57198;52.082;5.108;2022-07-09T11:01:54;2.35;;;1.20;;
69912;SDS011;57198;52.082;5.108;2022-07-09T11:04:30;1.50;;;0.77;;
69912;SDS011;57198;52.082;5.108;2022-07-09T11:06:58;1.35;;;0.90;;
69912;SDS011;57198;52.082;5.108;2022-07-09T11:09:26;1.67;;;1.00;;
69912;SDS011;57198;52.082;5.108;2022-07-09T11:11:54;2.35;;;0.90;;
69912;SDS011;57198;52.082;5.108;2022-07-09T11:14:21;3.22;;;1.23;;
69912;SDS011;57198;52.082;5.108;2022-07-09T11:16:52;1.77;;;1.00;;
69912;SDS011;57198;52.082;5.108;2022-07-09T11:19:20;2.38;;;1.02;;
69912;SDS011;57198;52.082;5.108;2022-07-09T11:21:48;2.55;;;0.85;;
69912;SDS011;57198;52.082;5.108;2022-07-09T11:24:19;3.95;;;1.05;;
69912;SDS011;57198;52.082;5.108;2022-07-09T11:26:49;2.70;;;1.60;;
69912;SDS011;57198;52.082;5.108;2022-07-09T11:29:17;3.87;;;1.30;;
69912;SDS011;57198;52.082;5.108;2022-07-09T11:31:50;3.60;;;1.20;;
69912;SDS011;57198;52.082;5.108;2022-07-09T11:34:19;1.70;;;1.20;;
69912;SDS011;57198;52.082;5.108;2022-07-09T11:36:47;3.80;;;1.23;;
69912;SDS011;57198;52.082;5.108;2022-07-09T11:39:24;2.10;;;1.10;;
69912;SDS011;57198;52.082;5.108;2022-07-09T11:41:51;5.57;;;1.40;;
69912;SDS011;57198;52.082;5.108;2022-07-09T11:44:23;2.15;;;1.08;;
69912;SDS011;57198;52.082;5.108;2022-07-09T11:52:00;6.85;;;4.78;;
69912;SDS011;57198;52.082;5.108;2022-07-09T11:54:28;5.13;;;3.00;;
69912;SDS011;57198;52.082;5.108;2022-07-09T11:56:56;3.80;;;2.45;;
69912;SDS011;57198;52.082;5.108;2022-07-09T11:59:27;5.80;;;3.85;;
69912;SDS011;57198;52.082;5.108;2022-07-09T12:01:58;7.05;;;3.83;;
69912;SDS011;57198;52.082;5.108;2022-07-09T12:04:27;5.32;;;2.65;;
69912;SDS011;57198;52.082;5.108;2022-07-09T12:06:55;4.63;;;2.17;;
69912;SDS011;57198;52.082;5.108;2022-07-09T12:09:30;4.93;;;2.95;;
69912;SDS011;57198;52.082;5.108;2022-07-09T12:11:58;7.35;;;4.40;;
69912;SDS011;57198;52.082;5.108;2022-07-09T12:14:25;5.10;;;1.90;;
69912;SDS011;57198;52.082;5.108;2022-07-09T12:16:53;4.90;;;2.03;;
69912;SDS011;57198;52.082;5.108;2022-07-09T12:19:20;4.50;;;1.50;;
69912;SDS011;57198;52.082;5.108;2022-07-09T12:21:47;4.68;;;1.25;;
69912;SDS011;57198;52.082;5.108;2022-07-09T12:24:22;4.80;;;1.35;;
69912;SDS011;57198;52.082;5.108;2022-07-09T12:26:49;2.95;;;1.13;;
69912;SDS011;57198;52.082;5.108;2022-07-09T12:29:36;2.28;;;0.70;;
69912;SDS011;57198;52.082;5.108;2022-07-09T12:32:04;4.03;;;1.03;;
69912;SDS011;57198;52.082;5.108;2022-07-09T12:34:31;2.65;;;1.17;;
69912;SDS011;57198;52.082;5.108;2022-07-09T12:37:04;5.78;;;1.30;;
69912;SDS011;57198;52.082;5.108;2022-07-09T12:39:32;2.42;;;1.20;;
69912;SDS011;57198;52.082;5.108;2022-07-09T12:41:59;3.00;;;1.13;;
69912;SDS011;57198;52.082;5.108;2022-07-09T12:44:27;3.47;;;1.27;;
69912;SDS011;57198;52.082;5.108;2022-07-09T12:46:54;3.28;;;1.10;;
69912;SDS011;57198;52.082;5.108;2022-07-09T12:49:22;3.40;;;1.25;;
69912;SDS011;57198;52.082;5.108;2022-07-09T12:51:49;2.92;;;1.20;;
69912;SDS011;57198;52.082;5.108;2022-07-09T12:54:16;2.33;;;0.80;;
69912;SDS011;57198;52.082;5.108;2022-07-09T12:56:44;2.53;;;1.70;;
69912;SDS011;57198;52.082;5.108;2022-07-09T12:59:31;5.40;;;1.90;;
69912;SDS011;57198;52.082;5.108;2022-07-09T13:01:58;2.40;;;1.10;;
69912;SDS011;57198;52.082;5.108;2022-07-09T13:04:26;3.03;;;1.23;;
69912;SDS011;57198;52.082;5.108;2022-07-09T13:06:53;7.28;;;3.60;;
69912;SDS011;57198;52.082;5.108;2022-07-09T13:09:20;5.07;;;2.60;;
69912;SDS011;57198;52.082;5.108;2022-07-09T13:11:48;3.53;;;1.08;;
69912;SDS011;57198;52.082;5.108;2022-07-09T13:14:16;2.97;;;1.60;;
69912;SDS011;57198;52.082;5.108;2022-07-09T13:16:43;5.13;;;1.15;;
69912;SDS011;57198;52.082;5.108;2022-07-09T13:19:31;2.20;;;0.88;;
69912;SDS011;57198;52.082;5.108;2022-07-09T13:21:58;3.90;;;0.90;;
69912;SDS011;57198;52.082;5.108;2022-07-09T13:24:25;5.10;;;0.80;;
69912;SDS011;57198;52.082;5.108;2022-07-09T13:26:52;2.72;;;0.98;;
69912;SDS011;57198;52.082;5.108;2022-07-09T13:29:20;3.03;;;0.80;;
69912;SDS011;57198;52.082;5.108;2022-07-09T13:31:47;3.50;;;1.13;;
69912;SDS011;57198;52.082;5.108;2022-07-09T13:34:14;2.70;;;0.70;;
69912;SDS011;57198;52.082;5.108;2022-07-09T13:36:42;3.72;;;0.77;;
69912;SDS011;57198;52.082;5.108;2022-07-09T13:39:09;2.08;;;0.90;;
69912;SDS011;57198;52.082;5.108;2022-07-09T13:41:36;4.30;;;1.20;;
69912;SDS011;57198;52.082;5.108;2022-07-09T13:44:03;6.22;;;1.08;;
69912;SDS011;57198;52.082;5.108;2022-07-09T13:46:33;3.60;;;0.90;;
69912;SDS011;57198;52.082;5.108;2022-07-09T13:49:01;7.75;;;1.63;;
69912;SDS011;57198;52.082;5.108;2022-07-09T13:51:28;5.97;;;1.52;;
69912;SDS011;57198;52.082;5.108;2022-07-09T13:53:56;7.68;;;1.50;;
69912;SDS011;57198;52.082;5.108;2022-07-09T13:56:23;5.05;;;1.38;;
69912;SDS011;57198;52.082;5.108;2022-07-09T13:58:50;5.83;;;1.60;;
69912;SDS011;57198;52.082;5.108;2022-07-09T14:01:18;9.40;;;1.60;;
69912;SDS011;57198;52.082;5.108;2022-07-09T14:03:46;4.85;;;1.30;;
69912;SDS011;57198;52.082;5.108;2022-07-09T14:06:14;4.72;;;1.42;;
69912;SDS011;57198;52.082;5.108;2022-07-09T14:09:01;5.00;;;1.30;;
69912;SDS011;57198;52.082;5.108;2022-07-09T14:11:29;7.53;;;1.43;;
69912;SDS011;57198;52.082;5.108;2022-07-09T14:13:56;4.20;;;1.15;;
69912;SDS011;57198;52.082;5.108;2022-07-09T14:16:24;5.65;;;1.48;;
69912;SDS011;57198;52.082;5.108;2022-07-09T14:18:51;7.78;;;1.73;;
69912;SDS011;57198;52.082;5.108;2022-07-09T14:21:20;5.40;;;1.13;;
69912;SDS011;57198;52.082;5.108;2022-07-09T14:23:47;8.40;;;1.37;;
69912;SDS011;57198;52.082;5.108;2022-07-09T14:26:15;3.72;;;1.00;;
69912;SDS011;57198;52.082;5.108;2022-07-09T14:28:42;5.47;;;1.60;;
69912;SDS011;57198;52.082;5.108;2022-07-09T14:31:10;3.38;;;1.00;;
69912;SDS011;57198;52.082;5.108;2022-07-09T14:33:37;4.90;;;1.30;;
69912;SDS011;57198;52.082;5.108;2022-07-09T14:36:05;5.23;;;1.20;;
69912;SDS011;57198;52.082;5.108;2022-07-09T14:38:32;5.32;;;1.20;;
69912;SDS011;57198;52.082;5.108;2022-07-09T14:41:00;8.75;;;1.30;;
69912;SDS011;57198;52.082;5.108;2022-07-09T14:43:27;6.82;;;1.40;;
69912;SDS011;57198;52.082;5.108;2022-07-09T14:45:55;3.60;;;1.50;;
69912;SDS011;57198;52.082;5.108;2022-07-09T14:48:22;6.20;;;1.00;;
69912;SDS011;57198;52.082;5.108;2022-07-09T14:50:49;5.07;;;1.58;;
69912;SDS011;57198;52.082;5.108;2022-07-09T14:53:17;3.85;;;1.23;;
69912;SDS011;57198;52.082;5.108;2022-07-09T14:55:44;2.60;;;0.80;;